sensor_id;sensor_type;location;lat;lon;timestamp;P1;durP1;ratioP1;P2;durP2;ratioP2
13457;SDS011;6801;53.018;11.560;2022-10-15T00:02:19;3.83;;;2.70;;
13457;SDS011;6801;53.018;11.560;2022-10-15T00:04:46;4.38;;;2.67;;
13457;SDS011;6801;53.018;11.560;2022-10-15T00:07:13;4.45;;;2.38;;
13457;SDS011;6801;53.018;11.560;2022-10-15T00:09:40;4.40;;;2.90;;
13457;SDS011;6801;53.018;11.560;2022-10-15T00:12:07;5.25;;;2.90;;
13457;SDS011;6801;53.018;11.560;2022-10-15T00:14:35;6.47;;;3.45;;
13457;SDS011;6801;53.018;11.560;2022-10-15T00:17:02;4.25;;;2.72;;
13457;SDS011;6801;53.018;11.560;2022-10-15T00:19:29;6.97;;;3.03;;
13457;SDS011;6801;53.018;11.560;2022-10-15T00:21:56;5.57;;;3.10;;
13457;SDS011;6801;53.018;11.560;2022-10-15T00:24:23;7.25;;;4.07;;
13457;SDS011;6801;53.018;11.560;2022-10-15T00:26:50;6.57;;;2.97;;
13457;SDS011;6801;53.018;11.560;2022-10-15T00:29:17;5.95;;;3.42;;
13457;SDS011;6801;53.018;11.560;2022-10-15T00:31:46;4.95;;;3.30;;
13457;SDS011;6801;53.018;11.560;2022-10-15T00:34:13;6.40;;;3.13;;
13457;SDS011;6801;53.018;11.560;2022-10-15T00:36:40;4.18;;;3.10;;
13457;SDS011;6801;53.018;11.560;2022-10-15T00:39:07;7.05;;;3.28;;
13457;SDS011;6801;53.018;11.560;2022-10-15T00:41:34;4.82;;;3.35;;
13457;SDS011;6801;53.018;11.560;2022-10-15T00:47:06;6.38;;;3.63;;
13457;SDS011;6801;53.018;11.560;2022-10-15T00:49:41;5.10;;;3.33;;
13457;SDS011;6801;53.018;11.560;2022-10-15T00:52:12;5.22;;;3.20;;
13457;SDS011;6801;53.018;11.560;2022-10-15T00:54:43;5.38;;;3.03;;
13457;SDS011;6801;53.018;11.560;2022-10-15T00:57:14;5.28;;;3.03;;
13457;SDS011;6801;53.018;11.560;2022-10-15T00:59:42;5.85;;;3.58;;
13457;SDS011;6801;53.018;11.560;2022-10-15T01:02:15;8.65;;;3.67;;
13457;SDS011;6801;53.018;11.560;2022-10-15T01:04:44;8.40;;;3.78;;
13457;SDS011;6801;53.018;11.560;2022-10-15T01:07:12;8.27;;;3.55;;
13457;SDS011;6801;53.018;11.560;2022-10-15T01:09:39;7.25;;;4.10;;
13457;SDS011;6801;53.018;11.560;2022-10-15T01:12:08;4.88;;;3.40;;
13457;SDS011;6801;53.018;11.560;2022-10-15T01:14:45;6.55;;;4.05;;
13457;SDS011;6801;53.018;11.560;2022-10-15T01:17:23;8.13;;;4.30;;
13457;SDS011;6801;53.018;11.560;2022-10-15T01:20:09;6.25;;;3.22;;
13457;SDS011;6801;53.018;11.560;2022-10-15T01:22:53;6.72;;;3.78;;
13457;SDS011;6801;53.018;11.560;2022-10-15T01:25:37;6.07;;;3.88;;
13457;SDS011;6801;53.018;11.560;2022-10-15T01:28:18;6.15;;;4.30;;
13457;SDS011;6801;53.018;11.560;2022-10-15T01:30:57;6.18;;;4.30;;
13457;SDS011;6801;53.018;11.560;2022-10-15T01:33:29;5.80;;;3.85;;
13457;SDS011;6801;53.018;11.560;2022-10-15T01:36:04;7.50;;;4.47;;
13457;SDS011;6801;53.018;11.560;2022-10-15T01:38:48;6.75;;;3.75;;
13457;SDS011;6801;53.018;11.560;2022-10-15T01:41:21;6.30;;;4.15;;
13457;SDS011;6801;53.018;11.560;2022-10-15T01:43:56;9.63;;;4.55;;
13457;SDS011;6801;53.018;11.560;2022-10-15T01:46:51;7.90;;;3.88;;
13457;SDS011;6801;53.018;11.560;2022-10-15T01:49:23;6.45;;;4.22;;
13457;SDS011;6801;53.018;11.560;2022-10-15T01:51:54;7.85;;;4.47;;
13457;SDS011;6801;53.018;11.560;2022-10-15T01:54:24;7.20;;;4.07;;
13457;SDS011;6801;53.018;11.560;2022-10-15T01:56:53;10.43;;;3.97;;
13457;SDS011;6801;53.018;11.560;2022-10-15T01:59:23;6.75;;;4.57;;
13457;SDS011;6801;53.018;11.560;2022-10-15T02:01:54;8.48;;;4.65;;
13457;SDS011;6801;53.018;11.560;2022-10-15T02:04:23;7.32;;;4.93;;
13457;SDS011;6801;53.018;11.560;2022-10-15T02:06:52;7.53;;;4.50;;
13457;SDS011;6801;53.018;11.560;2022-10-15T02:09:28;8.32;;;4.30;;
13457;SDS011;6801;53.018;11.560;2022-10-15T02:12:07;7.38;;;4.63;;
13457;SDS011;6801;53.018;11.560;2022-10-15T02:14:42;8.90;;;3.80;;
13457;SDS011;6801;53.018;11.560;2022-10-15T02:17:16;8.02;;;4.43;;
13457;SDS011;6801;53.018;11.560;2022-10-15T02:19:49;9.75;;;4.80;;
13457;SDS011;6801;53.018;11.560;2022-10-15T02:22:22;7.55;;;5.05;;
13457;SDS011;6801;53.018;11.560;2022-10-15T02:24:52;6.90;;;4.22;;
13457;SDS011;6801;53.018;11.560;2022-10-15T02:27:22;8.13;;;5.07;;
13457;SDS011;6801;53.018;11.560;2022-10-15T02:29:51;7.85;;;4.32;;
13457;SDS011;6801;53.018;11.560;2022-10-15T02:32:23;7.00;;;4.45;;
13457;SDS011;6801;53.018;11.560;2022-10-15T02:34:52;7.55;;;5.15;;
13457;SDS011;6801;53.018;11.560;2022-10-15T02:37:21;10.63;;;4.03;;
13457;SDS011;6801;53.018;11.560;2022-10-15T02:39:50;7.93;;;5.28;;
13457;SDS011;6801;53.018;11.560;2022-10-15T02:42:18;7.88;;;4.32;;
13457;SDS011;6801;53.018;11.560;2022-10-15T02:44:46;6.45;;;4.90;;
13457;SDS011;6801;53.018;11.560;2022-10-15T02:47:14;8.50;;;5.05;;
13457;SDS011;6801;53.018;11.560;2022-10-15T02:49:42;8.00;;;5.20;;
13457;SDS011;6801;53.018;11.560;2022-10-15T02:52:09;6.95;;;4.80;;
13457;SDS011;6801;53.018;11.560;2022-10-15T02:54:36;8.18;;;5.13;;
13457;SDS011;6801;53.018;11.560;2022-10-15T02:57:03;9.93;;;5.30;;
13457;SDS011;6801;53.018;11.560;2022-10-15T02:59:30;8.98;;;5.97;;
13457;SDS011;6801;53.018;11.560;2022-10-15T03:01:58;11.00;;;5.38;;
13457;SDS011;6801;53.018;11.560;2022-10-15T03:04:26;10.50;;;5.57;;
13457;SDS011;6801;53.018;11.560;2022-10-15T03:06:54;10.32;;;5.82;;
13457;SDS011;6801;53.018;11.560;2022-10-15T03:09:21;8.07;;;5.32;;
13457;SDS011;6801;53.018;11.560;2022-10-15T03:11:48;9.02;;;5.30;;
13457;SDS011;6801;53.018;11.560;2022-10-15T03:14:16;9.85;;;4.95;;
13457;SDS011;6801;53.018;11.560;2022-10-15T03:16:44;10.73;;;4.88;;
13457;SDS011;6801;53.018;11.560;2022-10-15T03:19:11;8.27;;;5.60;;
13457;SDS011;6801;53.018;11.560;2022-10-15T03:21:39;8.20;;;5.22;;
13457;SDS011;6801;53.018;11.560;2022-10-15T03:24:11;8.07;;;5.65;;
13457;SDS011;6801;53.018;11.560;2022-10-15T03:26:39;10.45;;;5.85;;
13457;SDS011;6801;53.018;11.560;2022-10-15T03:29:06;11.10;;;5.95;;
13457;SDS011;6801;53.018;11.560;2022-10-15T03:31:38;7.40;;;5.35;;
13457;SDS011;6801;53.018;11.560;2022-10-15T03:34:06;8.95;;;5.60;;
13457;SDS011;6801;53.018;11.560;2022-10-15T03:36:33;6.60;;;5.00;;
13457;SDS011;6801;53.018;11.560;2022-10-15T03:39:04;8.38;;;5.53;;
13457;SDS011;6801;53.018;11.560;2022-10-15T03:41:34;8.45;;;5.88;;
13457;SDS011;6801;53.018;11.560;2022-10-15T03:44:01;10.07;;;5.93;;
13457;SDS011;6801;53.018;11.560;2022-10-15T03:46:30;7.72;;;5.32;;
13457;SDS011;6801;53.018;11.560;2022-10-15T03:48:59;7.57;;;5.60;;
13457;SDS011;6801;53.018;11.560;2022-10-15T03:51:26;9.48;;;5.97;;
13457;SDS011;6801;53.018;11.560;2022-10-15T03:54:01;9.82;;;5.60;;
13457;SDS011;6801;53.018;11.560;2022-10-15T03:56:28;8.80;;;5.72;;
13457;SDS011;6801;53.018;11.560;2022-10-15T03:59:12;9.60;;;5.88;;
13457;SDS011;6801;53.018;11.560;2022-10-15T04:01:40;7.57;;;4.80;;
13457;SDS011;6801;53.018;11.560;2022-10-15T04:04:09;8.30;;;5.82;;
13457;SDS011;6801;53.018;11.560;2022-10-15T04:06:36;8.90;;;5.72;;
13457;SDS011;6801;53.018;11.560;2022-10-15T04:09:08;14.52;;;6.93;;
13457;SDS011;6801;53.018;11.560;2022-10-15T04:11:36;9.25;;;5.65;;
13457;SDS011;6801;53.018;11.560;2022-10-15T04:14:03;7.85;;;6.10;;
13457;SDS011;6801;53.018;11.560;2022-10-15T04:16:33;9.80;;;5.80;;
13457;SDS011;6801;53.018;11.560;2022-10-15T04:19:09;8.95;;;6.00;;
13457;SDS011;6801;53.018;11.560;2022-10-15T04:21:36;9.02;;;5.90;;
13457;SDS011;6801;53.018;11.560;2022-10-15T04:24:04;8.57;;;6.22;;
13457;SDS011;6801;53.018;11.560;2022-10-15T04:26:38;9.57;;;6.97;;
13457;SDS011;6801;53.018;11.560;2022-10-15T04:29:06;9.68;;;5.68;;
13457;SDS011;6801;53.018;11.560;2022-10-15T04:31:35;8.95;;;6.30;;
13457;SDS011;6801;53.018;11.560;2022-10-15T04:34:03;12.63;;;7.00;;
13457;SDS011;6801;53.018;11.560;2022-10-15T04:36:30;10.55;;;7.07;;
13457;SDS011;6801;53.018;11.560;2022-10-15T04:39:05;8.57;;;6.03;;
13457;SDS011;6801;53.018;11.560;2022-10-15T04:41:35;7.88;;;5.05;;
13457;SDS011;6801;53.018;11.560;2022-10-15T04:44:06;8.63;;;5.15;;
13457;SDS011;6801;53.018;11.560;2022-10-15T04:46:37;9.50;;;5.75;;
13457;SDS011;6801;53.018;11.560;2022-10-15T04:49:22;11.68;;;6.75;;
13457;SDS011;6801;53.018;11.560;2022-10-15T04:51:49;9.32;;;6.10;;
13457;SDS011;6801;53.018;11.560;2022-10-15T04:54:35;11.13;;;6.63;;
13457;SDS011;6801;53.018;11.560;2022-10-15T04:57:03;7.25;;;5.28;;
13457;SDS011;6801;53.018;11.560;2022-10-15T04:59:31;10.80;;;6.85;;
13457;SDS011;6801;53.018;11.560;2022-10-15T05:02:18;10.40;;;7.03;;
13457;SDS011;6801;53.018;11.560;2022-10-15T05:04:52;9.45;;;6.28;;
13457;SDS011;6801;53.018;11.560;2022-10-15T05:07:19;10.63;;;6.55;;
13457;SDS011;6801;53.018;11.560;2022-10-15T05:09:47;12.60;;;7.20;;
13457;SDS011;6801;53.018;11.560;2022-10-15T05:12:14;9.27;;;6.85;;
13457;SDS011;6801;53.018;11.560;2022-10-15T05:14:41;10.13;;;6.60;;
13457;SDS011;6801;53.018;11.560;2022-10-15T05:17:22;8.85;;;6.43;;
13457;SDS011;6801;53.018;11.560;2022-10-15T05:19:49;9.32;;;5.72;;
13457;SDS011;6801;53.018;11.560;2022-10-15T05:22:21;9.32;;;6.28;;
13457;SDS011;6801;53.018;11.560;2022-10-15T05:24:52;11.88;;;6.22;;
13457;SDS011;6801;53.018;11.560;2022-10-15T05:27:36;8.50;;;5.28;;
13457;SDS011;6801;53.018;11.560;2022-10-15T05:30:04;9.45;;;5.60;;
13457;SDS011;6801;53.018;11.560;2022-10-15T05:32:38;9.93;;;7.43;;
13457;SDS011;6801;53.018;11.560;2022-10-15T05:35:09;10.85;;;6.82;;
13457;SDS011;6801;53.018;11.560;2022-10-15T05:38:05;11.02;;;6.65;;
13457;SDS011;6801;53.018;11.560;2022-10-15T05:40:32;12.75;;;8.32;;
13457;SDS011;6801;53.018;11.560;2022-10-15T05:43:05;9.38;;;7.22;;
13457;SDS011;6801;53.018;11.560;2022-10-15T05:45:32;15.20;;;7.85;;
13457;SDS011;6801;53.018;11.560;2022-10-15T05:48:06;11.88;;;8.02;;
13457;SDS011;6801;53.018;11.560;2022-10-15T05:50:34;12.43;;;7.93;;
13457;SDS011;6801;53.018;11.560;2022-10-15T05:53:05;12.18;;;8.07;;
13457;SDS011;6801;53.018;11.560;2022-10-15T05:55:37;14.05;;;8.32;;
13457;SDS011;6801;53.018;11.560;2022-10-15T05:58:04;11.00;;;7.80;;
13457;SDS011;6801;53.018;11.560;2022-10-15T06:00:31;13.18;;;8.90;;
13457;SDS011;6801;53.018;11.560;2022-10-15T06:03:00;11.50;;;8.20;;
13457;SDS011;6801;53.018;11.560;2022-10-15T06:05:28;12.85;;;8.68;;
13457;SDS011;6801;53.018;11.560;2022-10-15T06:07:57;13.00;;;8.40;;
13457;SDS011;6801;53.018;11.560;2022-10-15T06:10:24;12.55;;;9.00;;
13457;SDS011;6801;53.018;11.560;2022-10-15T06:12:52;11.85;;;8.65;;
13457;SDS011;6801;53.018;11.560;2022-10-15T06:15:19;11.10;;;8.13;;
13457;SDS011;6801;53.018;11.560;2022-10-15T06:17:47;13.10;;;8.68;;
13457;SDS011;6801;53.018;11.560;2022-10-15T06:20:17;15.35;;;10.18;;
13457;SDS011;6801;53.018;11.560;2022-10-15T06:22:45;14.85;;;9.45;;
13457;SDS011;6801;53.018;11.560;2022-10-15T06:25:12;14.63;;;9.90;;
13457;SDS011;6801;53.018;11.560;2022-10-15T06:27:40;16.42;;;10.55;;
13457;SDS011;6801;53.018;11.560;2022-10-15T06:30:07;14.65;;;9.52;;
13457;SDS011;6801;53.018;11.560;2022-10-15T06:32:35;18.63;;;11.93;;
13457;SDS011;6801;53.018;11.560;2022-10-15T06:35:02;15.38;;;10.57;;
13457;SDS011;6801;53.018;11.560;2022-10-15T06:37:32;16.15;;;10.90;;
13457;SDS011;6801;53.018;11.560;2022-10-15T06:40:00;17.60;;;10.98;;
13457;SDS011;6801;53.018;11.560;2022-10-15T06:42:27;17.08;;;10.75;;
13457;SDS011;6801;53.018;11.560;2022-10-15T06:44:55;15.43;;;10.95;;
13457;SDS011;6801;53.018;11.560;2022-10-15T06:47:22;15.95;;;11.07;;
13457;SDS011;6801;53.018;11.560;2022-10-15T06:49:49;18.42;;;11.27;;
13457;SDS011;6801;53.018;11.560;2022-10-15T06:52:16;15.88;;;10.45;;
13457;SDS011;6801;53.018;11.560;2022-10-15T06:54:43;15.95;;;10.18;;
13457;SDS011;6801;53.018;11.560;2022-10-15T06:57:13;18.70;;;11.10;;
13457;SDS011;6801;53.018;11.560;2022-10-15T06:59:40;16.05;;;9.27;;
13457;SDS011;6801;53.018;11.560;2022-10-15T07:02:07;14.05;;;10.00;;
13457;SDS011;6801;53.018;11.560;2022-10-15T07:04:35;15.38;;;11.10;;
13457;SDS011;6801;53.018;11.560;2022-10-15T07:07:02;14.90;;;9.27;;
13457;SDS011;6801;53.018;11.560;2022-10-15T07:09:29;20.35;;;11.40;;
13457;SDS011;6801;53.018;11.560;2022-10-15T07:11:57;12.93;;;9.48;;
13457;SDS011;6801;53.018;11.560;2022-10-15T07:14:27;17.23;;;11.20;;
13457;SDS011;6801;53.018;11.560;2022-10-15T07:16:54;19.33;;;11.35;;
13457;SDS011;6801;53.018;11.560;2022-10-15T07:19:21;19.80;;;11.35;;
13457;SDS011;6801;53.018;11.560;2022-10-15T07:21:48;14.75;;;9.68;;
13457;SDS011;6801;53.018;11.560;2022-10-15T07:24:16;17.38;;;12.05;;
13457;SDS011;6801;53.018;11.560;2022-10-15T07:26:45;18.05;;;12.30;;
13457;SDS011;6801;53.018;11.560;2022-10-15T07:29:12;17.88;;;10.77;;
13457;SDS011;6801;53.018;11.560;2022-10-15T07:31:41;18.20;;;12.38;;
13457;SDS011;6801;53.018;11.560;2022-10-15T07:34:08;19.95;;;12.30;;
13457;SDS011;6801;53.018;11.560;2022-10-15T07:36:35;19.77;;;12.45;;
13457;SDS011;6801;53.018;11.560;2022-10-15T07:39:02;17.52;;;11.75;;
13457;SDS011;6801;53.018;11.560;2022-10-15T07:41:29;21.73;;;13.18;;
13457;SDS011;6801;53.018;11.560;2022-10-15T07:43:57;18.08;;;11.32;;
13457;SDS011;6801;53.018;11.560;2022-10-15T07:46:24;22.42;;;13.98;;
13457;SDS011;6801;53.018;11.560;2022-10-15T07:48:54;19.48;;;12.07;;
13457;SDS011;6801;53.018;11.560;2022-10-15T07:51:22;20.60;;;13.10;;
13457;SDS011;6801;53.018;11.560;2022-10-15T07:53:49;18.75;;;12.15;;
13457;SDS011;6801;53.018;11.560;2022-10-15T07:56:16;17.35;;;9.73;;
13457;SDS011;6801;53.018;11.560;2022-10-15T07:58:43;19.92;;;12.68;;
13457;SDS011;6801;53.018;11.560;2022-10-15T08:01:16;16.85;;;11.48;;
13457;SDS011;6801;53.018;11.560;2022-10-15T08:03:44;12.82;;;8.40;;
13457;SDS011;6801;53.018;11.560;2022-10-15T08:06:12;16.92;;;10.70;;
13457;SDS011;6801;53.018;11.560;2022-10-15T08:08:40;19.17;;;13.65;;
13457;SDS011;6801;53.018;11.560;2022-10-15T08:11:07;21.95;;;12.90;;
13457;SDS011;6801;53.018;11.560;2022-10-15T08:13:35;15.93;;;10.77;;
13457;SDS011;6801;53.018;11.560;2022-10-15T08:16:05;19.33;;;12.48;;
13457;SDS011;6801;53.018;11.560;2022-10-15T08:18:33;20.38;;;12.93;;
13457;SDS011;6801;53.018;11.560;2022-10-15T08:21:00;18.13;;;12.15;;
13457;SDS011;6801;53.018;11.560;2022-10-15T08:23:28;20.60;;;13.15;;
13457;SDS011;6801;53.018;11.560;2022-10-15T08:25:56;16.40;;;11.52;;
13457;SDS011;6801;53.018;11.560;2022-10-15T08:28:24;14.45;;;10.18;;
13457;SDS011;6801;53.018;11.560;2022-10-15T08:30:52;17.23;;;11.43;;
13457;SDS011;6801;53.018;11.560;2022-10-15T08:33:19;20.55;;;12.57;;
13457;SDS011;6801;53.018;11.560;2022-10-15T08:35:46;14.90;;;10.70;;
13457;SDS011;6801;53.018;11.560;2022-10-15T08:38:13;18.92;;;13.30;;
13457;SDS011;6801;53.018;11.560;2022-10-15T08:40:43;16.25;;;11.82;;
13457;SDS011;6801;53.018;11.560;2022-10-15T08:45:45;16.77;;;12.77;;
13457;SDS011;6801;53.018;11.560;2022-10-15T08:48:14;18.73;;;12.85;;
13457;SDS011;6801;53.018;11.560;2022-10-15T08:50:47;19.42;;;13.27;;
13457;SDS011;6801;53.018;11.560;2022-10-15T08:53:21;17.02;;;11.73;;
13457;SDS011;6801;53.018;11.560;2022-10-15T08:55:54;19.38;;;12.13;;
13457;SDS011;6801;53.018;11.560;2022-10-15T08:58:26;16.05;;;11.40;;
13457;SDS011;6801;53.018;11.560;2022-10-15T09:01:03;16.90;;;11.63;;
13457;SDS011;6801;53.018;11.560;2022-10-15T09:03:37;18.02;;;10.30;;
13457;SDS011;6801;53.018;11.560;2022-10-15T09:06:10;20.05;;;13.25;;
13457;SDS011;6801;53.018;11.560;2022-10-15T09:08:43;16.95;;;12.40;;
13457;SDS011;6801;53.018;11.560;2022-10-15T09:11:21;22.30;;;13.40;;
13457;SDS011;6801;53.018;11.560;2022-10-15T09:13:55;17.73;;;11.35;;
13457;SDS011;6801;53.018;11.560;2022-10-15T09:16:24;13.68;;;10.02;;
13457;SDS011;6801;53.018;11.560;2022-10-15T09:18:55;15.07;;;10.15;;
13457;SDS011;6801;53.018;11.560;2022-10-15T09:21:25;16.42;;;12.35;;
13457;SDS011;6801;53.018;11.560;2022-10-15T09:23:53;13.27;;;9.85;;
13457;SDS011;6801;53.018;11.560;2022-10-15T09:26:26;19.60;;;11.23;;
13457;SDS011;6801;53.018;11.560;2022-10-15T09:28:58;15.65;;;10.88;;
13457;SDS011;6801;53.018;11.560;2022-10-15T09:31:32;13.65;;;9.65;;
13457;SDS011;6801;53.018;11.560;2022-10-15T09:34:06;13.95;;;9.27;;
13457;SDS011;6801;53.018;11.560;2022-10-15T09:36:40;12.27;;;9.55;;
13457;SDS011;6801;53.018;11.560;2022-10-15T09:39:18;14.48;;;11.18;;
13457;SDS011;6801;53.018;11.560;2022-10-15T09:42:08;15.52;;;10.35;;
13457;SDS011;6801;53.018;11.560;2022-10-15T09:44:44;15.02;;;9.52;;
13457;SDS011;6801;53.018;11.560;2022-10-15T09:47:16;14.70;;;10.43;;
13457;SDS011;6801;53.018;11.560;2022-10-15T09:49:53;13.90;;;9.70;;
13457;SDS011;6801;53.018;11.560;2022-10-15T09:52:23;15.63;;;10.07;;
13457;SDS011;6801;53.018;11.560;2022-10-15T09:55:02;13.65;;;9.90;;
13457;SDS011;6801;53.018;11.560;2022-10-15T09:57:39;16.88;;;10.15;;
13457;SDS011;6801;53.018;11.560;2022-10-15T10:00:08;14.80;;;10.80;;
13457;SDS011;6801;53.018;11.560;2022-10-15T10:02:37;13.50;;;8.85;;
13457;SDS011;6801;53.018;11.560;2022-10-15T10:05:16;13.60;;;9.38;;
13457;SDS011;6801;53.018;11.560;2022-10-15T10:07:45;15.77;;;11.23;;
13457;SDS011;6801;53.018;11.560;2022-10-15T10:10:20;13.40;;;9.48;;
13457;SDS011;6801;53.018;11.560;2022-10-15T10:12:51;13.68;;;10.45;;
13457;SDS011;6801;53.018;11.560;2022-10-15T10:15:30;14.18;;;8.52;;
13457;SDS011;6801;53.018;11.560;2022-10-15T10:17:59;13.35;;;9.93;;
13457;SDS011;6801;53.018;11.560;2022-10-15T10:20:30;16.00;;;10.55;;
13457;SDS011;6801;53.018;11.560;2022-10-15T10:22:58;16.25;;;9.88;;
13457;SDS011;6801;53.018;11.560;2022-10-15T10:25:29;13.05;;;9.27;;
13457;SDS011;6801;53.018;11.560;2022-10-15T10:28:04;15.00;;;8.95;;
13457;SDS011;6801;53.018;11.560;2022-10-15T10:30:42;15.23;;;10.95;;
13457;SDS011;6801;53.018;11.560;2022-10-15T10:33:19;15.90;;;11.38;;
13457;SDS011;6801;53.018;11.560;2022-10-15T10:35:51;15.07;;;9.75;;
13457;SDS011;6801;53.018;11.560;2022-10-15T10:38:19;14.50;;;9.30;;
13457;SDS011;6801;53.018;11.560;2022-10-15T10:40:50;14.43;;;9.50;;
13457;SDS011;6801;53.018;11.560;2022-10-15T10:43:22;18.02;;;10.70;;
13457;SDS011;6801;53.018;11.560;2022-10-15T10:45:52;14.82;;;10.18;;
13457;SDS011;6801;53.018;11.560;2022-10-15T10:48:21;17.60;;;10.33;;
13457;SDS011;6801;53.018;11.560;2022-10-15T10:51:00;17.38;;;10.98;;
13457;SDS011;6801;53.018;11.560;2022-10-15T10:53:29;15.18;;;10.13;;
13457;SDS011;6801;53.018;11.560;2022-10-15T10:55:56;17.02;;;11.00;;
13457;SDS011;6801;53.018;11.560;2022-10-15T10:58:26;16.83;;;11.45;;
13457;SDS011;6801;53.018;11.560;2022-10-15T11:00:57;17.85;;;12.48;;
13457;SDS011;6801;53.018;11.560;2022-10-15T11:03:29;16.60;;;11.23;;
13457;SDS011;6801;53.018;11.560;2022-10-15T11:06:00;18.73;;;11.38;;
13457;SDS011;6801;53.018;11.560;2022-10-15T11:08:45;14.63;;;10.10;;
13457;SDS011;6801;53.018;11.560;2022-10-15T11:11:21;14.68;;;10.63;;
13457;SDS011;6801;53.018;11.560;2022-10-15T11:13:59;13.63;;;8.57;;
13457;SDS011;6801;53.018;11.560;2022-10-15T11:16:33;13.73;;;9.73;;
13457;SDS011;6801;53.018;11.560;2022-10-15T11:19:14;11.98;;;8.45;;
13457;SDS011;6801;53.018;11.560;2022-10-15T11:21:52;14.70;;;10.05;;
13457;SDS011;6801;53.018;11.560;2022-10-15T11:24:31;18.08;;;12.18;;
13457;SDS011;6801;53.018;11.560;2022-10-15T11:27:12;18.88;;;12.60;;
13457;SDS011;6801;53.018;11.560;2022-10-15T11:29:53;16.20;;;11.20;;
13457;SDS011;6801;53.018;11.560;2022-10-15T11:32:30;16.23;;;10.88;;
13457;SDS011;6801;53.018;11.560;2022-10-15T11:35:14;15.70;;;10.63;;
13457;SDS011;6801;53.018;11.560;2022-10-15T11:37:53;22.77;;;14.40;;
13457;SDS011;6801;53.018;11.560;2022-10-15T11:40:31;14.75;;;10.60;;
13457;SDS011;6801;53.018;11.560;2022-10-15T11:43:06;12.20;;;8.52;;
13457;SDS011;6801;53.018;11.560;2022-10-15T11:45:46;15.20;;;10.38;;
13457;SDS011;6801;53.018;11.560;2022-10-15T11:48:25;16.10;;;11.50;;
13457;SDS011;6801;53.018;11.560;2022-10-15T11:51:06;17.88;;;11.43;;
13457;SDS011;6801;53.018;11.560;2022-10-15T11:56:44;19.85;;;13.57;;
13457;SDS011;6801;53.018;11.560;2022-10-15T11:59:14;20.52;;;14.10;;
13457;SDS011;6801;53.018;11.560;2022-10-15T12:01:52;19.50;;;13.52;;
13457;SDS011;6801;53.018;11.560;2022-10-15T12:04:24;16.83;;;11.90;;
13457;SDS011;6801;53.018;11.560;2022-10-15T12:07:00;23.40;;;15.05;;
13457;SDS011;6801;53.018;11.560;2022-10-15T12:12:00;25.48;;;17.15;;
13457;SDS011;6801;53.018;11.560;2022-10-15T12:14:35;24.83;;;16.45;;
13457;SDS011;6801;53.018;11.560;2022-10-15T12:17:10;25.13;;;16.52;;
13457;SDS011;6801;53.018;11.560;2022-10-15T12:19:44;22.33;;;15.70;;
13457;SDS011;6801;53.018;11.560;2022-10-15T12:22:17;21.45;;;15.93;;
13457;SDS011;6801;53.018;11.560;2022-10-15T12:24:58;24.98;;;17.35;;
13457;SDS011;6801;53.018;11.560;2022-10-15T12:27:26;23.42;;;15.68;;
13457;SDS011;6801;53.018;11.560;2022-10-15T12:32:57;26.02;;;17.20;;
13457;SDS011;6801;53.018;11.560;2022-10-15T12:35:35;22.85;;;17.73;;
13457;SDS011;6801;53.018;11.560;2022-10-15T12:38:11;26.55;;;17.67;;
13457;SDS011;6801;53.018;11.560;2022-10-15T12:40:53;21.92;;;15.98;;
13457;SDS011;6801;53.018;11.560;2022-10-15T12:43:26;26.17;;;18.50;;
13457;SDS011;6801;53.018;11.560;2022-10-15T12:45:55;21.98;;;16.48;;
13457;SDS011;6801;53.018;11.560;2022-10-15T12:48:34;24.23;;;16.20;;
13457;SDS011;6801;53.018;11.560;2022-10-15T12:57:00;20.90;;;16.02;;
13457;SDS011;6801;53.018;11.560;2022-10-15T12:59:29;19.20;;;14.70;;
13457;SDS011;6801;53.018;11.560;2022-10-15T13:04:59;20.13;;;15.45;;
13457;SDS011;6801;53.018;11.560;2022-10-15T13:07:26;20.08;;;15.25;;
13457;SDS011;6801;53.018;11.560;2022-10-15T13:09:54;21.00;;;15.68;;
13457;SDS011;6801;53.018;11.560;2022-10-15T13:12:24;21.30;;;15.07;;
13457;SDS011;6801;53.018;11.560;2022-10-15T13:14:54;22.02;;;17.05;;
13457;SDS011;6801;53.018;11.560;2022-10-15T13:17:27;21.88;;;14.57;;
13457;SDS011;6801;53.018;11.560;2022-10-15T13:19:56;24.23;;;16.23;;
13457;SDS011;6801;53.018;11.560;2022-10-15T13:22:27;21.58;;;16.27;;
13457;SDS011;6801;53.018;11.560;2022-10-15T13:24:55;19.13;;;14.93;;
13457;SDS011;6801;53.018;11.560;2022-10-15T13:27:23;17.77;;;14.35;;
13457;SDS011;6801;53.018;11.560;2022-10-15T13:29:52;18.38;;;13.98;;
13457;SDS011;6801;53.018;11.560;2022-10-15T13:32:20;16.42;;;13.57;;
13457;SDS011;6801;53.018;11.560;2022-10-15T13:34:48;17.13;;;12.95;;
13457;SDS011;6801;53.018;11.560;2022-10-15T13:37:16;15.38;;;12.13;;
13457;SDS011;6801;53.018;11.560;2022-10-15T13:39:48;14.98;;;10.85;;
13457;SDS011;6801;53.018;11.560;2022-10-15T13:42:17;15.38;;;11.65;;
13457;SDS011;6801;53.018;11.560;2022-10-15T13:44:55;10.98;;;8.75;;
13457;SDS011;6801;53.018;11.560;2022-10-15T13:47:24;12.95;;;10.23;;
13457;SDS011;6801;53.018;11.560;2022-10-15T13:52:46;13.50;;;9.85;;
13457;SDS011;6801;53.018;11.560;2022-10-15T13:55:19;12.32;;;9.10;;
13457;SDS011;6801;53.018;11.560;2022-10-15T13:57:49;11.73;;;9.88;;
13457;SDS011;6801;53.018;11.560;2022-10-15T14:00:23;11.88;;;9.18;;
13457;SDS011;6801;53.018;11.560;2022-10-15T14:03:05;12.70;;;9.32;;
13457;SDS011;6801;53.018;11.560;2022-10-15T14:05:40;18.30;;;10.05;;
13457;SDS011;6801;53.018;11.560;2022-10-15T14:08:13;14.27;;;10.43;;
13457;SDS011;6801;53.018;11.560;2022-10-15T14:10:51;13.98;;;10.95;;
13457;SDS011;6801;53.018;11.560;2022-10-15T14:13:20;15.27;;;10.23;;
13457;SDS011;6801;53.018;11.560;2022-10-15T14:15:49;14.38;;;11.35;;
13457;SDS011;6801;53.018;11.560;2022-10-15T14:18:25;12.57;;;10.18;;
13457;SDS011;6801;53.018;11.560;2022-10-15T14:20:56;12.82;;;10.75;;
13457;SDS011;6801;53.018;11.560;2022-10-15T14:23:24;13.30;;;10.85;;
13457;SDS011;6801;53.018;11.560;2022-10-15T14:25:55;14.73;;;11.60;;
13457;SDS011;6801;53.018;11.560;2022-10-15T14:28:23;17.10;;;12.05;;
13457;SDS011;6801;53.018;11.560;2022-10-15T14:30:52;14.50;;;11.77;;
13457;SDS011;6801;53.018;11.560;2022-10-15T14:33:39;12.93;;;11.13;;
13457;SDS011;6801;53.018;11.560;2022-10-15T14:36:14;14.38;;;10.77;;
13457;SDS011;6801;53.018;11.560;2022-10-15T14:38:50;15.02;;;12.65;;
13457;SDS011;6801;53.018;11.560;2022-10-15T14:41:24;14.70;;;11.43;;
13457;SDS011;6801;53.018;11.560;2022-10-15T14:44:00;14.93;;;11.90;;
13457;SDS011;6801;53.018;11.560;2022-10-15T14:46:37;15.32;;;11.52;;
13457;SDS011;6801;53.018;11.560;2022-10-15T14:49:20;16.20;;;12.52;;
13457;SDS011;6801;53.018;11.560;2022-10-15T14:51:57;15.25;;;11.80;;
13457;SDS011;6801;53.018;11.560;2022-10-15T14:54:33;15.43;;;12.30;;
13457;SDS011;6801;53.018;11.560;2022-10-15T14:57:09;20.65;;;13.95;;
13457;SDS011;6801;53.018;11.560;2022-10-15T14:59:42;20.75;;;15.25;;
13457;SDS011;6801;53.018;11.560;2022-10-15T15:02:12;21.42;;;17.80;;
13457;SDS011;6801;53.018;11.560;2022-10-15T15:04:41;26.00;;;18.90;;
13457;SDS011;6801;53.018;11.560;2022-10-15T15:07:13;21.08;;;15.98;;
13457;SDS011;6801;53.018;11.560;2022-10-15T15:09:42;22.92;;;17.10;;
13457;SDS011;6801;53.018;11.560;2022-10-15T15:12:16;22.30;;;16.60;;
13457;SDS011;6801;53.018;11.560;2022-10-15T15:14:45;21.75;;;16.27;;
13457;SDS011;6801;53.018;11.560;2022-10-15T15:17:13;19.15;;;15.63;;
13457;SDS011;6801;53.018;11.560;2022-10-15T15:19:42;19.63;;;16.02;;
13457;SDS011;6801;53.018;11.560;2022-10-15T15:22:09;22.80;;;16.48;;
13457;SDS011;6801;53.018;11.560;2022-10-15T15:24:39;27.20;;;16.45;;